Weather at Muqeible Airfield [CLOSED]

Public forecast

Using degrees Celsius for public forecast. Weather courtesy of forecast.io.

Closest aviation weather report (METAR) to Muqeible Airfield

Report is more than 2 hours old.

Closest report is Haifa International Airport, 22.2 nm (41.1 km) NW.

2024/05/19 18:50 (retrieved 2 hours ago)

LLHA 191850Z VRB03KT CAVOK 24/19 Q1010

Closest aviation forecast (TAF) to Muqeible Airfield

Closest forecast is Haifa International Airport, 22.2 nm (41.1 km) NW.

2024/05/19 18:00 (retrieved 3 hours ago)

TAF LLHA 191702Z 1918/2018 VRB03KT CAVOK TEMPO 1920/2007 15005KT BECMG 2007/2009 28008KT BECMG 2015/2017 VRB03KT TX32/2011Z TN20/2003Z